Terminal Aerodrome Forecast
Issued by NWS Charleston, WV

Current Version | Previous Version | Graphics & Text | Print | Product List | Glossary On
Versions: 1 2 3 4 5 6 7 8 9 10 11 12 13 14 15 16 17 18 19 20 21
000
FTUS41 KRLX 290245 AAA
TAFBKW
TAF AMD
KBKW 290245Z 2903/2924 24004KT P6SM SCT035
     FM290800 26006KT 5SM BR BKN020
     FM291400 29006KT P6SM BKN035
     FM291800 29006KT P6SM SCT080=

USA.gov is the U.S. government's official web portal to all federal, state and local government web resources and services.